sensor_id;sensor_type;location;lat;lon;timestamp;P1;durP1;ratioP1;P2;durP2;ratioP2
60502;SDS011;51448;51.660;5.824;2023-07-31T00:01:46;19.00;;;7.40;;
60502;SDS011;51448;51.660;5.824;2023-07-31T00:04:13;14.40;;;7.57;;
60502;SDS011;51448;51.660;5.824;2023-07-31T00:06:41;14.88;;;7.68;;
60502;SDS011;51448;51.660;5.824;2023-07-31T00:09:09;14.93;;;7.13;;
60502;SDS011;51448;51.660;5.824;2023-07-31T00:11:36;17.25;;;7.53;;
60502;SDS011;51448;51.660;5.824;2023-07-31T00:14:04;14.48;;;7.43;;
60502;SDS011;51448;51.660;5.824;2023-07-31T00:16:32;16.63;;;7.85;;
60502;SDS011;51448;51.660;5.824;2023-07-31T00:18:59;17.33;;;7.32;;
60502;SDS011;51448;51.660;5.824;2023-07-31T00:21:27;19.30;;;7.65;;
60502;SDS011;51448;51.660;5.824;2023-07-31T00:23:55;15.88;;;7.22;;
60502;SDS011;51448;51.660;5.824;2023-07-31T00:26:22;12.70;;;6.60;;
60502;SDS011;51448;51.660;5.824;2023-07-31T00:28:50;17.92;;;6.97;;
60502;SDS011;51448;51.660;5.824;2023-07-31T00:31:17;13.52;;;6.50;;
60502;SDS011;51448;51.660;5.824;2023-07-31T00:33:45;16.40;;;6.22;;
60502;SDS011;51448;51.660;5.824;2023-07-31T00:36:12;14.13;;;6.55;;
60502;SDS011;51448;51.660;5.824;2023-07-31T00:38:42;15.20;;;6.05;;
60502;SDS011;51448;51.660;5.824;2023-07-31T00:41:10;18.10;;;6.65;;
60502;SDS011;51448;51.660;5.824;2023-07-31T00:43:37;17.20;;;6.70;;
60502;SDS011;51448;51.660;5.824;2023-07-31T00:46:05;13.43;;;5.90;;
60502;SDS011;51448;51.660;5.824;2023-07-31T00:48:35;18.35;;;6.47;;
60502;SDS011;51448;51.660;5.824;2023-07-31T00:51:03;12.95;;;5.15;;
60502;SDS011;51448;51.660;5.824;2023-07-31T00:53:30;13.38;;;6.07;;
60502;SDS011;51448;51.660;5.824;2023-07-31T00:55:58;18.77;;;6.32;;
60502;SDS011;51448;51.660;5.824;2023-07-31T00:58:26;15.02;;;5.90;;
60502;SDS011;51448;51.660;5.824;2023-07-31T01:00:54;12.00;;;5.18;;
60502;SDS011;51448;51.660;5.824;2023-07-31T01:03:21;14.07;;;5.30;;
60502;SDS011;51448;51.660;5.824;2023-07-31T01:11:43;16.05;;;5.55;;
60502;SDS011;51448;51.660;5.824;2023-07-31T01:14:19;11.68;;;5.15;;
60502;SDS011;51448;51.660;5.824;2023-07-31T01:16:47;13.82;;;5.60;;
60502;SDS011;51448;51.660;5.824;2023-07-31T01:19:15;14.52;;;4.53;;
60502;SDS011;51448;51.660;5.824;2023-07-31T01:21:58;12.88;;;4.60;;
60502;SDS011;51448;51.660;5.824;2023-07-31T01:27:50;10.80;;;4.32;;
60502;SDS011;51448;51.660;5.824;2023-07-31T01:30:37;10.73;;;4.63;;
60502;SDS011;51448;51.660;5.824;2023-07-31T01:33:12;12.45;;;4.65;;
60502;SDS011;51448;51.660;5.824;2023-07-31T01:35:41;13.13;;;4.97;;
60502;SDS011;51448;51.660;5.824;2023-07-31T01:38:12;12.75;;;4.50;;
60502;SDS011;51448;51.660;5.824;2023-07-31T01:40:41;12.52;;;4.22;;
60502;SDS011;51448;51.660;5.824;2023-07-31T01:43:09;13.38;;;4.60;;
60502;SDS011;51448;51.660;5.824;2023-07-31T01:45:37;14.70;;;4.60;;
60502;SDS011;51448;51.660;5.824;2023-07-31T01:48:04;13.32;;;5.35;;
60502;SDS011;51448;51.660;5.824;2023-07-31T01:50:32;11.60;;;3.70;;
60502;SDS011;51448;51.660;5.824;2023-07-31T01:53:00;11.95;;;4.40;;
60502;SDS011;51448;51.660;5.824;2023-07-31T01:55:27;13.07;;;4.78;;
60502;SDS011;51448;51.660;5.824;2023-07-31T01:57:55;11.02;;;4.28;;
60502;SDS011;51448;51.660;5.824;2023-07-31T02:00:22;13.00;;;4.10;;
60502;SDS011;51448;51.660;5.824;2023-07-31T02:02:50;12.13;;;4.10;;
60502;SDS011;51448;51.660;5.824;2023-07-31T02:05:19;14.15;;;4.18;;
60502;SDS011;51448;51.660;5.824;2023-07-31T02:07:47;9.80;;;3.83;;
60502;SDS011;51448;51.660;5.824;2023-07-31T02:10:15;9.95;;;4.03;;
60502;SDS011;51448;51.660;5.824;2023-07-31T02:12:42;14.80;;;3.85;;
60502;SDS011;51448;51.660;5.824;2023-07-31T02:15:10;10.88;;;4.20;;
60502;SDS011;51448;51.660;5.824;2023-07-31T02:17:37;11.43;;;3.90;;
60502;SDS011;51448;51.660;5.824;2023-07-31T02:20:05;10.88;;;4.30;;
60502;SDS011;51448;51.660;5.824;2023-07-31T02:22:33;11.70;;;4.53;;
60502;SDS011;51448;51.660;5.824;2023-07-31T02:25:02;14.07;;;4.38;;
60502;SDS011;51448;51.660;5.824;2023-07-31T02:27:30;13.02;;;4.28;;
60502;SDS011;51448;51.660;5.824;2023-07-31T02:29:57;11.07;;;4.55;;
60502;SDS011;51448;51.660;5.824;2023-07-31T02:32:26;13.02;;;4.78;;
60502;SDS011;51448;51.660;5.824;2023-07-31T02:34:54;10.32;;;4.15;;
60502;SDS011;51448;51.660;5.824;2023-07-31T02:37:23;14.52;;;5.15;;
60502;SDS011;51448;51.660;5.824;2023-07-31T02:39:51;23.20;;;5.47;;
60502;SDS011;51448;51.660;5.824;2023-07-31T02:42:19;13.88;;;4.22;;
60502;SDS011;51448;51.660;5.824;2023-07-31T02:44:47;12.52;;;4.70;;
60502;SDS011;51448;51.660;5.824;2023-07-31T02:47:14;11.48;;;4.63;;
60502;SDS011;51448;51.660;5.824;2023-07-31T02:49:42;13.07;;;4.57;;
60502;SDS011;51448;51.660;5.824;2023-07-31T02:52:09;12.25;;;4.35;;
60502;SDS011;51448;51.660;5.824;2023-07-31T02:54:37;15.32;;;4.60;;
60502;SDS011;51448;51.660;5.824;2023-07-31T02:57:04;13.68;;;4.50;;
60502;SDS011;51448;51.660;5.824;2023-07-31T02:59:32;14.25;;;5.07;;
60502;SDS011;51448;51.660;5.824;2023-07-31T03:02:00;17.00;;;4.90;;
60502;SDS011;51448;51.660;5.824;2023-07-31T03:04:27;12.93;;;4.30;;
60502;SDS011;51448;51.660;5.824;2023-07-31T03:06:56;11.27;;;4.57;;
60502;SDS011;51448;51.660;5.824;2023-07-31T03:09:24;12.65;;;4.55;;
60502;SDS011;51448;51.660;5.824;2023-07-31T03:11:52;14.32;;;4.82;;
60502;SDS011;51448;51.660;5.824;2023-07-31T03:14:19;12.65;;;4.30;;
60502;SDS011;51448;51.660;5.824;2023-07-31T03:16:47;12.50;;;4.15;;
60502;SDS011;51448;51.660;5.824;2023-07-31T03:19:15;11.70;;;4.25;;
60502;SDS011;51448;51.660;5.824;2023-07-31T03:21:43;16.60;;;5.03;;
60502;SDS011;51448;51.660;5.824;2023-07-31T03:24:10;16.50;;;4.40;;
60502;SDS011;51448;51.660;5.824;2023-07-31T03:26:39;14.98;;;4.82;;
60502;SDS011;51448;51.660;5.824;2023-07-31T03:29:08;15.35;;;4.72;;
60502;SDS011;51448;51.660;5.824;2023-07-31T03:31:36;13.27;;;4.47;;
60502;SDS011;51448;51.660;5.824;2023-07-31T03:34:03;17.23;;;5.25;;
60502;SDS011;51448;51.660;5.824;2023-07-31T03:36:31;12.02;;;5.18;;
60502;SDS011;51448;51.660;5.824;2023-07-31T03:39:00;11.75;;;4.05;;
60502;SDS011;51448;51.660;5.824;2023-07-31T03:41:27;14.77;;;4.43;;
60502;SDS011;51448;51.660;5.824;2023-07-31T03:43:56;12.65;;;4.30;;
60502;SDS011;51448;51.660;5.824;2023-07-31T03:46:23;12.65;;;4.55;;
60502;SDS011;51448;51.660;5.824;2023-07-31T03:48:52;10.68;;;4.00;;
60502;SDS011;51448;51.660;5.824;2023-07-31T03:51:20;11.80;;;4.22;;
60502;SDS011;51448;51.660;5.824;2023-07-31T03:53:47;12.75;;;4.30;;
60502;SDS011;51448;51.660;5.824;2023-07-31T03:56:15;9.85;;;3.95;;
60502;SDS011;51448;51.660;5.824;2023-07-31T03:58:42;10.00;;;4.28;;
60502;SDS011;51448;51.660;5.824;2023-07-31T04:01:10;16.17;;;4.90;;
60502;SDS011;51448;51.660;5.824;2023-07-31T04:03:38;12.95;;;3.58;;
60502;SDS011;51448;51.660;5.824;2023-07-31T04:06:05;12.13;;;3.90;;
60502;SDS011;51448;51.660;5.824;2023-07-31T04:08:34;17.00;;;5.22;;
60502;SDS011;51448;51.660;5.824;2023-07-31T04:11:02;12.85;;;4.07;;
60502;SDS011;51448;51.660;5.824;2023-07-31T04:13:29;10.15;;;4.15;;
60502;SDS011;51448;51.660;5.824;2023-07-31T04:15:57;15.25;;;4.28;;
60502;SDS011;51448;51.660;5.824;2023-07-31T04:18:25;12.48;;;4.43;;
60502;SDS011;51448;51.660;5.824;2023-07-31T04:20:53;12.15;;;4.00;;
60502;SDS011;51448;51.660;5.824;2023-07-31T04:23:21;11.40;;;4.57;;
60502;SDS011;51448;51.660;5.824;2023-07-31T04:25:49;10.25;;;3.90;;
60502;SDS011;51448;51.660;5.824;2023-07-31T04:28:16;13.60;;;3.90;;
60502;SDS011;51448;51.660;5.824;2023-07-31T04:30:44;12.63;;;4.00;;
60502;SDS011;51448;51.660;5.824;2023-07-31T04:33:15;14.83;;;4.37;;
60502;SDS011;51448;51.660;5.824;2023-07-31T04:35:48;16.58;;;4.38;;
60502;SDS011;51448;51.660;5.824;2023-07-31T04:38:20;19.95;;;4.05;;
60502;SDS011;51448;51.660;5.824;2023-07-31T04:40:48;11.85;;;3.70;;
60502;SDS011;51448;51.660;5.824;2023-07-31T04:43:16;12.18;;;4.00;;
60502;SDS011;51448;51.660;5.824;2023-07-31T04:45:46;12.45;;;4.75;;
60502;SDS011;51448;51.660;5.824;2023-07-31T04:48:15;11.32;;;4.60;;
60502;SDS011;51448;51.660;5.824;2023-07-31T04:50:42;10.80;;;4.03;;
60502;SDS011;51448;51.660;5.824;2023-07-31T04:53:10;14.02;;;4.43;;
60502;SDS011;51448;51.660;5.824;2023-07-31T04:55:38;12.15;;;4.55;;
60502;SDS011;51448;51.660;5.824;2023-07-31T04:58:05;10.70;;;3.38;;
60502;SDS011;51448;51.660;5.824;2023-07-31T05:00:33;10.45;;;3.67;;
60502;SDS011;51448;51.660;5.824;2023-07-31T05:03:00;12.90;;;3.63;;
60502;SDS011;51448;51.660;5.824;2023-07-31T05:05:28;13.57;;;4.03;;
60502;SDS011;51448;51.660;5.824;2023-07-31T05:07:56;11.05;;;3.47;;
60502;SDS011;51448;51.660;5.824;2023-07-31T05:10:24;12.48;;;3.42;;
60502;SDS011;51448;51.660;5.824;2023-07-31T05:12:51;11.95;;;3.65;;
60502;SDS011;51448;51.660;5.824;2023-07-31T05:15:19;10.57;;;3.80;;
60502;SDS011;51448;51.660;5.824;2023-07-31T05:17:47;9.73;;;3.17;;
60502;SDS011;51448;51.660;5.824;2023-07-31T05:20:14;9.15;;;3.25;;
60502;SDS011;51448;51.660;5.824;2023-07-31T05:22:42;10.85;;;3.75;;
60502;SDS011;51448;51.660;5.824;2023-07-31T05:25:10;9.75;;;3.50;;
60502;SDS011;51448;51.660;5.824;2023-07-31T05:27:37;12.57;;;4.18;;
60502;SDS011;51448;51.660;5.824;2023-07-31T05:30:05;12.23;;;3.92;;
60502;SDS011;51448;51.660;5.824;2023-07-31T05:32:33;17.42;;;3.75;;
60502;SDS011;51448;51.660;5.824;2023-07-31T05:35:01;10.32;;;3.70;;
60502;SDS011;51448;51.660;5.824;2023-07-31T05:37:29;12.70;;;4.75;;
60502;SDS011;51448;51.660;5.824;2023-07-31T05:39:56;9.90;;;3.83;;
60502;SDS011;51448;51.660;5.824;2023-07-31T05:42:24;11.52;;;4.05;;
60502;SDS011;51448;51.660;5.824;2023-07-31T05:44:51;9.90;;;3.67;;
60502;SDS011;51448;51.660;5.824;2023-07-31T05:47:19;10.20;;;4.03;;
60502;SDS011;51448;51.660;5.824;2023-07-31T05:49:48;8.55;;;3.13;;
60502;SDS011;51448;51.660;5.824;2023-07-31T05:52:16;10.15;;;3.85;;
60502;SDS011;51448;51.660;5.824;2023-07-31T05:54:44;10.48;;;4.22;;
60502;SDS011;51448;51.660;5.824;2023-07-31T05:57:13;11.45;;;4.00;;
60502;SDS011;51448;51.660;5.824;2023-07-31T05:59:40;11.48;;;4.60;;
60502;SDS011;51448;51.660;5.824;2023-07-31T06:02:08;10.68;;;3.90;;
60502;SDS011;51448;51.660;5.824;2023-07-31T06:04:35;8.93;;;3.50;;
60502;SDS011;51448;51.660;5.824;2023-07-31T06:07:03;10.30;;;3.95;;
60502;SDS011;51448;51.660;5.824;2023-07-31T06:09:31;10.45;;;3.40;;
60502;SDS011;51448;51.660;5.824;2023-07-31T06:11:58;9.70;;;3.97;;
60502;SDS011;51448;51.660;5.824;2023-07-31T06:14:26;8.60;;;2.92;;
60502;SDS011;51448;51.660;5.824;2023-07-31T06:16:54;7.43;;;2.80;;
60502;SDS011;51448;51.660;5.824;2023-07-31T06:19:21;6.40;;;2.42;;
60502;SDS011;51448;51.660;5.824;2023-07-31T06:21:49;7.85;;;3.28;;
60502;SDS011;51448;51.660;5.824;2023-07-31T06:24:17;6.18;;;2.40;;
60502;SDS011;51448;51.660;5.824;2023-07-31T06:26:47;7.57;;;2.60;;
60502;SDS011;51448;51.660;5.824;2023-07-31T06:29:15;5.22;;;2.60;;
60502;SDS011;51448;51.660;5.824;2023-07-31T06:31:42;6.05;;;2.42;;
60502;SDS011;51448;51.660;5.824;2023-07-31T06:34:10;5.72;;;2.25;;
60502;SDS011;51448;51.660;5.824;2023-07-31T06:36:38;5.00;;;2.22;;
60502;SDS011;51448;51.660;5.824;2023-07-31T06:39:06;5.13;;;2.20;;
60502;SDS011;51448;51.660;5.824;2023-07-31T06:41:33;4.25;;;1.83;;
60502;SDS011;51448;51.660;5.824;2023-07-31T06:44:05;4.97;;;2.22;;
60502;SDS011;51448;51.660;5.824;2023-07-31T06:46:34;6.28;;;2.45;;
60502;SDS011;51448;51.660;5.824;2023-07-31T06:49:02;4.97;;;2.08;;
60502;SDS011;51448;51.660;5.824;2023-07-31T06:51:31;4.80;;;2.10;;
60502;SDS011;51448;51.660;5.824;2023-07-31T06:53:58;5.18;;;2.10;;
60502;SDS011;51448;51.660;5.824;2023-07-31T06:56:26;4.55;;;2.33;;
60502;SDS011;51448;51.660;5.824;2023-07-31T06:58:55;4.97;;;2.33;;
60502;SDS011;51448;51.660;5.824;2023-07-31T07:01:23;6.25;;;2.53;;
60502;SDS011;51448;51.660;5.824;2023-07-31T07:03:50;5.45;;;2.60;;
60502;SDS011;51448;51.660;5.824;2023-07-31T07:06:18;5.20;;;2.50;;
60502;SDS011;51448;51.660;5.824;2023-07-31T07:08:46;7.70;;;2.60;;
60502;SDS011;51448;51.660;5.824;2023-07-31T07:11:16;5.40;;;2.35;;
60502;SDS011;51448;51.660;5.824;2023-07-31T07:13:43;5.88;;;2.80;;
60502;SDS011;51448;51.660;5.824;2023-07-31T07:16:11;4.65;;;2.65;;
60502;SDS011;51448;51.660;5.824;2023-07-31T07:18:39;5.00;;;2.65;;
60502;SDS011;51448;51.660;5.824;2023-07-31T07:21:20;6.07;;;2.47;;
60502;SDS011;51448;51.660;5.824;2023-07-31T07:23:47;4.47;;;2.20;;
60502;SDS011;51448;51.660;5.824;2023-07-31T07:26:15;5.18;;;2.65;;
60502;SDS011;51448;51.660;5.824;2023-07-31T07:28:43;5.72;;;2.28;;
60502;SDS011;51448;51.660;5.824;2023-07-31T07:31:10;5.72;;;3.10;;
60502;SDS011;51448;51.660;5.824;2023-07-31T07:33:38;6.40;;;2.83;;
60502;SDS011;51448;51.660;5.824;2023-07-31T07:36:06;6.15;;;2.28;;
60502;SDS011;51448;51.660;5.824;2023-07-31T07:38:36;5.55;;;2.20;;
60502;SDS011;51448;51.660;5.824;2023-07-31T07:41:06;4.38;;;2.05;;
60502;SDS011;51448;51.660;5.824;2023-07-31T07:43:33;4.75;;;2.50;;
60502;SDS011;51448;51.660;5.824;2023-07-31T07:46:01;4.50;;;2.10;;
60502;SDS011;51448;51.660;5.824;2023-07-31T07:48:29;4.13;;;1.88;;
60502;SDS011;51448;51.660;5.824;2023-07-31T07:50:56;5.72;;;2.58;;
60502;SDS011;51448;51.660;5.824;2023-07-31T07:53:24;4.45;;;2.03;;
60502;SDS011;51448;51.660;5.824;2023-07-31T07:55:52;5.47;;;2.30;;
60502;SDS011;51448;51.660;5.824;2023-07-31T07:58:19;4.55;;;2.00;;
60502;SDS011;51448;51.660;5.824;2023-07-31T08:00:50;3.47;;;1.63;;
60502;SDS011;51448;51.660;5.824;2023-07-31T08:03:19;4.95;;;1.75;;
60502;SDS011;51448;51.660;5.824;2023-07-31T08:05:47;4.15;;;1.85;;
60502;SDS011;51448;51.660;5.824;2023-07-31T08:08:15;5.28;;;2.08;;
60502;SDS011;51448;51.660;5.824;2023-07-31T08:10:43;4.88;;;2.20;;
60502;SDS011;51448;51.660;5.824;2023-07-31T08:13:11;4.60;;;1.80;;
60502;SDS011;51448;51.660;5.824;2023-07-31T08:15:42;3.85;;;1.90;;
60502;SDS011;51448;51.660;5.824;2023-07-31T08:18:11;4.70;;;2.13;;
60502;SDS011;51448;51.660;5.824;2023-07-31T08:20:39;5.47;;;2.60;;
60502;SDS011;51448;51.660;5.824;2023-07-31T08:23:06;4.10;;;1.92;;
60502;SDS011;51448;51.660;5.824;2023-07-31T08:25:37;5.30;;;2.50;;
60502;SDS011;51448;51.660;5.824;2023-07-31T08:28:05;5.63;;;2.03;;
60502;SDS011;51448;51.660;5.824;2023-07-31T08:30:34;5.10;;;1.88;;
60502;SDS011;51448;51.660;5.824;2023-07-31T08:33:02;5.53;;;2.45;;
60502;SDS011;51448;51.660;5.824;2023-07-31T08:35:30;13.68;;;2.55;;
60502;SDS011;51448;51.660;5.824;2023-07-31T08:37:59;5.63;;;2.20;;
60502;SDS011;51448;51.660;5.824;2023-07-31T08:40:27;6.60;;;2.70;;
60502;SDS011;51448;51.660;5.824;2023-07-31T08:42:56;4.75;;;2.63;;
60502;SDS011;51448;51.660;5.824;2023-07-31T08:45:24;5.32;;;2.30;;
60502;SDS011;51448;51.660;5.824;2023-07-31T08:47:52;6.85;;;2.15;;
60502;SDS011;51448;51.660;5.824;2023-07-31T08:50:20;6.07;;;2.50;;
60502;SDS011;51448;51.660;5.824;2023-07-31T08:52:49;5.47;;;2.25;;
60502;SDS011;51448;51.660;5.824;2023-07-31T08:55:20;6.00;;;2.30;;
60502;SDS011;51448;51.660;5.824;2023-07-31T08:57:51;5.53;;;2.47;;
60502;SDS011;51448;51.660;5.824;2023-07-31T09:00:20;5.15;;;2.67;;
60502;SDS011;51448;51.660;5.824;2023-07-31T09:03:09;5.60;;;2.30;;
60502;SDS011;51448;51.660;5.824;2023-07-31T09:05:43;6.60;;;2.50;;
60502;SDS011;51448;51.660;5.824;2023-07-31T09:08:13;4.63;;;2.28;;
60502;SDS011;51448;51.660;5.824;2023-07-31T09:10:45;5.05;;;2.28;;
60502;SDS011;51448;51.660;5.824;2023-07-31T09:13:14;5.82;;;2.47;;
60502;SDS011;51448;51.660;5.824;2023-07-31T09:15:45;4.90;;;2.55;;
60502;SDS011;51448;51.660;5.824;2023-07-31T09:18:14;4.70;;;2.45;;
60502;SDS011;51448;51.660;5.824;2023-07-31T09:23:27;6.27;;;2.60;;
60502;SDS011;51448;51.660;5.824;2023-07-31T09:28:59;5.55;;;3.13;;
60502;SDS011;51448;51.660;5.824;2023-07-31T09:34:09;5.18;;;2.78;;
60502;SDS011;51448;51.660;5.824;2023-07-31T09:36:44;6.35;;;2.97;;
60502;SDS011;51448;51.660;5.824;2023-07-31T09:39:15;7.47;;;3.30;;
60502;SDS011;51448;51.660;5.824;2023-07-31T09:41:46;7.95;;;2.92;;
60502;SDS011;51448;51.660;5.824;2023-07-31T09:44:21;6.85;;;3.13;;
60502;SDS011;51448;51.660;5.824;2023-07-31T09:47:04;7.80;;;3.80;;
60502;SDS011;51448;51.660;5.824;2023-07-31T09:49:32;8.85;;;4.00;;
60502;SDS011;51448;51.660;5.824;2023-07-31T09:51:59;9.40;;;3.30;;
60502;SDS011;51448;51.660;5.824;2023-07-31T09:54:27;6.18;;;3.28;;
60502;SDS011;51448;51.660;5.824;2023-07-31T09:56:55;8.63;;;3.88;;
60502;SDS011;51448;51.660;5.824;2023-07-31T09:59:27;6.70;;;3.60;;
60502;SDS011;51448;51.660;5.824;2023-07-31T10:01:54;6.35;;;3.53;;
60502;SDS011;51448;51.660;5.824;2023-07-31T10:04:25;7.30;;;3.63;;
60502;SDS011;51448;51.660;5.824;2023-07-31T10:06:56;6.93;;;3.38;;
60502;SDS011;51448;51.660;5.824;2023-07-31T10:09:28;7.32;;;3.35;;
60502;SDS011;51448;51.660;5.824;2023-07-31T10:12:02;7.03;;;3.40;;
60502;SDS011;51448;51.660;5.824;2023-07-31T10:14:37;7.72;;;3.28;;
60502;SDS011;51448;51.660;5.824;2023-07-31T10:17:08;8.02;;;3.47;;
60502;SDS011;51448;51.660;5.824;2023-07-31T10:19:36;7.45;;;3.42;;
60502;SDS011;51448;51.660;5.824;2023-07-31T10:22:06;8.48;;;3.22;;
60502;SDS011;51448;51.660;5.824;2023-07-31T10:24:38;6.15;;;3.35;;
60502;SDS011;51448;51.660;5.824;2023-07-31T10:27:07;7.90;;;3.25;;
60502;SDS011;51448;51.660;5.824;2023-07-31T10:29:41;7.60;;;3.20;;
60502;SDS011;51448;51.660;5.824;2023-07-31T10:32:15;8.30;;;3.20;;
60502;SDS011;51448;51.660;5.824;2023-07-31T10:34:45;7.43;;;3.33;;
60502;SDS011;51448;51.660;5.824;2023-07-31T10:40:03;8.02;;;3.30;;
60502;SDS011;51448;51.660;5.824;2023-07-31T10:42:52;7.53;;;3.35;;
60502;SDS011;51448;51.660;5.824;2023-07-31T10:50:37;8.00;;;3.38;;
60502;SDS011;51448;51.660;5.824;2023-07-31T10:53:22;7.78;;;3.70;;
60502;SDS011;51448;51.660;5.824;2023-07-31T10:56:00;8.10;;;3.65;;
60502;SDS011;51448;51.660;5.824;2023-07-31T10:58:30;6.53;;;3.15;;
60502;SDS011;51448;51.660;5.824;2023-07-31T11:01:00;7.35;;;3.55;;
60502;SDS011;51448;51.660;5.824;2023-07-31T11:03:40;7.28;;;3.45;;
60502;SDS011;51448;51.660;5.824;2023-07-31T11:06:16;6.30;;;2.85;;
60502;SDS011;51448;51.660;5.824;2023-07-31T11:08:46;6.75;;;2.67;;
60502;SDS011;51448;51.660;5.824;2023-07-31T11:11:17;5.88;;;2.67;;
60502;SDS011;51448;51.660;5.824;2023-07-31T11:16:17;7.28;;;3.13;;
60502;SDS011;51448;51.660;5.824;2023-07-31T11:18:48;5.85;;;2.22;;
60502;SDS011;51448;51.660;5.824;2023-07-31T11:21:19;7.75;;;2.83;;
60502;SDS011;51448;51.660;5.824;2023-07-31T11:26:27;7.05;;;3.10;;
60502;SDS011;51448;51.660;5.824;2023-07-31T11:28:55;5.72;;;2.40;;
60502;SDS011;51448;51.660;5.824;2023-07-31T11:31:22;7.63;;;2.97;;
60502;SDS011;51448;51.660;5.824;2023-07-31T11:33:50;5.47;;;2.40;;
60502;SDS011;51448;51.660;5.824;2023-07-31T11:36:18;7.82;;;2.95;;
60502;SDS011;51448;51.660;5.824;2023-07-31T11:38:48;6.20;;;2.38;;
60502;SDS011;51448;51.660;5.824;2023-07-31T11:41:16;6.78;;;2.70;;
60502;SDS011;51448;51.660;5.824;2023-07-31T11:43:48;8.02;;;3.15;;
60502;SDS011;51448;51.660;5.824;2023-07-31T11:46:15;6.50;;;2.90;;
60502;SDS011;51448;51.660;5.824;2023-07-31T11:48:45;6.68;;;2.67;;
60502;SDS011;51448;51.660;5.824;2023-07-31T11:51:13;5.63;;;2.95;;
60502;SDS011;51448;51.660;5.824;2023-07-31T11:53:51;6.13;;;2.47;;
60502;SDS011;51448;51.660;5.824;2023-07-31T11:56:24;6.18;;;2.55;;
60502;SDS011;51448;51.660;5.824;2023-07-31T11:58:55;5.88;;;2.42;;
60502;SDS011;51448;51.660;5.824;2023-07-31T12:01:26;6.80;;;2.63;;
60502;SDS011;51448;51.660;5.824;2023-07-31T12:03:56;5.28;;;2.42;;
60502;SDS011;51448;51.660;5.824;2023-07-31T12:06:34;5.68;;;2.40;;
60502;SDS011;51448;51.660;5.824;2023-07-31T12:09:04;5.90;;;2.47;;
60502;SDS011;51448;51.660;5.824;2023-07-31T12:11:42;6.38;;;2.60;;
60502;SDS011;51448;51.660;5.824;2023-07-31T12:14:46;6.28;;;2.15;;
60502;SDS011;51448;51.660;5.824;2023-07-31T12:17:09;5.80;;;2.03;;
60502;SDS011;51448;51.660;5.824;2023-07-31T12:19:36;5.53;;;2.30;;
60502;SDS011;51448;51.660;5.824;2023-07-31T12:22:14;6.97;;;2.10;;
60502;SDS011;51448;51.660;5.824;2023-07-31T12:24:44;5.97;;;2.47;;
60502;SDS011;51448;51.660;5.824;2023-07-31T12:27:12;5.43;;;2.08;;
60502;SDS011;51448;51.660;5.824;2023-07-31T12:29:42;5.88;;;2.03;;
60502;SDS011;51448;51.660;5.824;2023-07-31T12:32:20;4.07;;;2.00;;
60502;SDS011;51448;51.660;5.824;2023-07-31T12:34:49;5.60;;;2.03;;
60502;SDS011;51448;51.660;5.824;2023-07-31T12:37:17;4.93;;;1.67;;
60502;SDS011;51448;51.660;5.824;2023-07-31T12:39:45;4.28;;;1.80;;
60502;SDS011;51448;51.660;5.824;2023-07-31T12:42:12;4.72;;;2.15;;
60502;SDS011;51448;51.660;5.824;2023-07-31T12:44:40;6.13;;;2.05;;
60502;SDS011;51448;51.660;5.824;2023-07-31T12:47:08;5.70;;;2.00;;
60502;SDS011;51448;51.660;5.824;2023-07-31T12:49:35;4.53;;;2.10;;
60502;SDS011;51448;51.660;5.824;2023-07-31T12:52:03;6.63;;;2.85;;
60502;SDS011;51448;51.660;5.824;2023-07-31T12:54:31;5.45;;;2.42;;
60502;SDS011;51448;51.660;5.824;2023-07-31T12:56:59;5.55;;;2.20;;
60502;SDS011;51448;51.660;5.824;2023-07-31T12:59:27;4.30;;;2.08;;
60502;SDS011;51448;51.660;5.824;2023-07-31T13:01:55;4.90;;;2.15;;
60502;SDS011;51448;51.660;5.824;2023-07-31T13:04:22;5.38;;;2.22;;
60502;SDS011;51448;51.660;5.824;2023-07-31T13:06:50;5.95;;;3.00;;
60502;SDS011;51448;51.660;5.824;2023-07-31T13:09:17;5.72;;;2.58;;
60502;SDS011;51448;51.660;5.824;2023-07-31T13:11:45;5.30;;;2.80;;
60502;SDS011;51448;51.660;5.824;2023-07-31T13:14:13;5.32;;;2.58;;
60502;SDS011;51448;51.660;5.824;2023-07-31T13:16:40;7.65;;;3.10;;
60502;SDS011;51448;51.660;5.824;2023-07-31T13:19:08;8.10;;;3.80;;
60502;SDS011;51448;51.660;5.824;2023-07-31T13:21:36;9.10;;;3.53;;
60502;SDS011;51448;51.660;5.824;2023-07-31T13:24:04;8.82;;;3.88;;
60502;SDS011;51448;51.660;5.824;2023-07-31T13:26:31;7.32;;;3.58;;
60502;SDS011;51448;51.660;5.824;2023-07-31T13:28:59;6.95;;;3.90;;
60502;SDS011;51448;51.660;5.824;2023-07-31T13:31:27;7.53;;;3.67;;
60502;SDS011;51448;51.660;5.824;2023-07-31T13:33:54;7.88;;;3.97;;
60502;SDS011;51448;51.660;5.824;2023-07-31T13:36:22;7.10;;;3.83;;
60502;SDS011;51448;51.660;5.824;2023-07-31T13:38:50;7.60;;;4.20;;
60502;SDS011;51448;51.660;5.824;2023-07-31T13:41:18;6.95;;;4.00;;
60502;SDS011;51448;51.660;5.824;2023-07-31T13:43:46;6.97;;;3.63;;
60502;SDS011;51448;51.660;5.824;2023-07-31T13:46:13;7.88;;;4.18;;
60502;SDS011;51448;51.660;5.824;2023-07-31T13:48:41;8.68;;;4.00;;
60502;SDS011;51448;51.660;5.824;2023-07-31T13:51:09;7.32;;;3.92;;
60502;SDS011;51448;51.660;5.824;2023-07-31T13:53:36;8.68;;;4.60;;
60502;SDS011;51448;51.660;5.824;2023-07-31T13:56:04;7.07;;;3.88;;
60502;SDS011;51448;51.660;5.824;2023-07-31T13:58:32;7.13;;;3.65;;
60502;SDS011;51448;51.660;5.824;2023-07-31T14:01:01;11.25;;;4.32;;
60502;SDS011;51448;51.660;5.824;2023-07-31T14:03:28;7.38;;;4.00;;
60502;SDS011;51448;51.660;5.824;2023-07-31T14:05:56;9.68;;;4.05;;
60502;SDS011;51448;51.660;5.824;2023-07-31T14:08:24;9.45;;;3.88;;
60502;SDS011;51448;51.660;5.824;2023-07-31T14:10:52;8.82;;;3.85;;
60502;SDS011;51448;51.660;5.824;2023-07-31T14:13:19;14.23;;;4.20;;
60502;SDS011;51448;51.660;5.824;2023-07-31T14:15:47;7.28;;;3.65;;
60502;SDS011;51448;51.660;5.824;2023-07-31T14:18:15;7.38;;;3.72;;
60502;SDS011;51448;51.660;5.824;2023-07-31T14:20:43;7.95;;;3.92;;
60502;SDS011;51448;51.660;5.824;2023-07-31T14:23:10;9.18;;;3.92;;
60502;SDS011;51448;51.660;5.824;2023-07-31T14:25:38;6.50;;;3.58;;
60502;SDS011;51448;51.660;5.824;2023-07-31T14:28:05;10.10;;;4.60;;
60502;SDS011;51448;51.660;5.824;2023-07-31T14:30:33;7.60;;;3.92;;
60502;SDS011;51448;51.660;5.824;2023-07-31T14:33:01;8.43;;;4.45;;
60502;SDS011;51448;51.660;5.824;2023-07-31T14:35:29;9.27;;;4.40;;
60502;SDS011;51448;51.660;5.824;2023-07-31T14:37:57;8.73;;;4.43;;
60502;SDS011;51448;51.660;5.824;2023-07-31T14:40:24;10.07;;;4.63;;
60502;SDS011;51448;51.660;5.824;2023-07-31T14:42:52;6.65;;;3.58;;
60502;SDS011;51448;51.660;5.824;2023-07-31T14:45:21;8.05;;;4.47;;
60502;SDS011;51448;51.660;5.824;2023-07-31T14:47:48;7.13;;;3.47;;
60502;SDS011;51448;51.660;5.824;2023-07-31T14:50:16;7.60;;;4.05;;
60502;SDS011;51448;51.660;5.824;2023-07-31T14:52:48;11.23;;;4.50;;
60502;SDS011;51448;51.660;5.824;2023-07-31T14:55:16;9.43;;;4.55;;
60502;SDS011;51448;51.660;5.824;2023-07-31T14:57:45;8.27;;;3.53;;
60502;SDS011;51448;51.660;5.824;2023-07-31T15:00:13;10.00;;;4.20;;
60502;SDS011;51448;51.660;5.824;2023-07-31T15:02:41;9.05;;;4.38;;
60502;SDS011;51448;51.660;5.824;2023-07-31T15:05:09;8.45;;;4.32;;
60502;SDS011;51448;51.660;5.824;2023-07-31T15:07:36;13.18;;;4.18;;
60502;SDS011;51448;51.660;5.824;2023-07-31T15:10:04;8.32;;;3.83;;
60502;SDS011;51448;51.660;5.824;2023-07-31T15:12:33;9.95;;;4.50;;
60502;SDS011;51448;51.660;5.824;2023-07-31T15:15:00;7.07;;;3.85;;
60502;SDS011;51448;51.660;5.824;2023-07-31T15:17:28;7.93;;;3.75;;
60502;SDS011;51448;51.660;5.824;2023-07-31T15:19:57;9.55;;;3.60;;
60502;SDS011;51448;51.660;5.824;2023-07-31T15:22:26;6.40;;;2.40;;
60502;SDS011;51448;51.660;5.824;2023-07-31T15:24:54;6.55;;;2.40;;